Wetterdaten: Woche 19.02.07 - 25.02.07 (KW8)
Datum Zeit Temperatur Luftfeuchte Luftdruck Niederschlag
19.02.2007 00:00 -0,1 C 94 % 1016 hPa 0,0 l/m
19.02.2007 01:00 -0,2 C 96 % 1016 hPa 0,0 l/m
19.02.2007 02:00 0,4 C 97 % 1015 hPa 0,0 l/m
19.02.2007 03:00 0,6 C 98 % 1015 hPa 0,0 l/m
19.02.2007 04:00 0,7 C 98 % 1015 hPa 0,0 l/m
19.02.2007 05:00 0,7 C 98 % 1016 hPa 0,0 l/m
19.02.2007 06:00 0,9 C 98 % 1016 hPa 0,0 l/m
19.02.2007 07:00 0,4 C 98 % 1016 hPa 0,0 l/m
19.02.2007 08:00 0,1 C 98 % 1016 hPa 0,0 l/m
19.02.2007 09:00 1,3 C 98 % 1016 hPa 0,0 l/m
19.02.2007 10:00 3,1 C 98 % 1016 hPa 0,0 l/m
19.02.2007 11:00 6,3 C 87 % 1016 hPa 0,0 l/m
19.02.2007 12:00 8,9 C 64 % 1015 hPa 0,0 l/m
19.02.2007 13:00 10,6 C 58 % 1015 hPa 0,0 l/m
19.02.2007 14:00 11,6 C 48 % 1014 hPa 0,0 l/m
19.02.2007 15:00 11,9 C 46 % 1014 hPa 0,0 l/m
19.02.2007 16:00 11,1 C 48 % 1013 hPa 0,0 l/m
19.02.2007 17:00 9,7 C 54 % 1013 hPa 0,0 l/m
19.02.2007 18:00 7,3 C 62 % 1013 hPa 0,0 l/m
19.02.2007 19:00 5,0 C 71 % 1013 hPa 0,0 l/m
19.02.2007 20:00 3,5 C 77 % 1013 hPa 0,0 l/m
19.02.2007 21:00 2,5 C 83 % 1013 hPa 0,0 l/m
19.02.2007 22:00 1,7 C 87 % 1013 hPa 0,0 l/m
19.02.2007 23:00 1,1 C 89 % 1013 hPa 0,0 l/m
20.02.2007 00:00 0,5 C 92 % 1013 hPa 0,0 l/m
20.02.2007 01:00 -0,1 C 93 % 1013 hPa 0,0 l/m
20.02.2007 02:00 -0,6 C 94 % 1013 hPa 0,0 l/m
20.02.2007 03:00 -0,9 C 95 % 1013 hPa 0,0 l/m
20.02.2007 04:00 -1,4 C 96 % 1013 hPa 0,0 l/m
20.02.2007 05:00 -1,8 C 97 % 1013 hPa 0,0 l/m
20.02.2007 06:00 -2,0 C 98 % 1013 hPa 0,0 l/m
20.02.2007 07:00 -2,3 C 98 % 1013 hPa 0,0 l/m
20.02.2007 08:00 -2,3 C 98 % 1013 hPa 0,0 l/m
20.02.2007 09:00 -0,5 C 98 % 1014 hPa 0,0 l/m
20.02.2007 10:00 2,9 C 98 % 1014 hPa 0,0 l/m
20.02.2007 11:00 6,1 C 82 % 1014 hPa 0,0 l/m
20.02.2007 12:00 8,9 C 51 % 1014 hPa 0,0 l/m
20.02.2007 13:00 11,6 C 44 % 1013 hPa 0,0 l/m
20.02.2007 14:00 13,5 C 38 % 1013 hPa 0,0 l/m
20.02.2007 15:00 13,0 C 44 % 1012 hPa 0,0 l/m
20.02.2007 16:00 11,3 C 52 % 1012 hPa 0,0 l/m
20.02.2007 17:00 10,3 C 55 % 1013 hPa 0,0 l/m
20.02.2007 18:00 8,4 C 61 % 1013 hPa 0,0 l/m
20.02.2007 19:00 6,0 C 70 % 1013 hPa 0,0 l/m
20.02.2007 20:00 4,7 C 78 % 1014 hPa 0,0 l/m
20.02.2007 21:00 3,6 C 83 % 1014 hPa 0,0 l/m
20.02.2007 22:00 2,9 C 88 % 1014 hPa 0,0 l/m
20.02.2007 23:00 2,2 C 90 % 1014 hPa 0,0 l/m
21.02.2007 00:00 1,4 C 92 % 1015 hPa 0,0 l/m
21.02.2007 01:00 0,5 C 93 % 1014 hPa 0,0 l/m
21.02.2007 02:00 -0,3 C 93 % 1014 hPa 0,0 l/m
21.02.2007 03:00 -1,0 C 94 % 1014 hPa 0,0 l/m
21.02.2007 04:00 -2,0 C 95 % 1015 hPa 0,0 l/m
21.02.2007 05:00 -2,6 C 96 % 1015 hPa 0,0 l/m
21.02.2007 06:00 -3,2 C 97 % 1015 hPa 0,0 l/m
21.02.2007 07:00 -3,7 C 97 % 1016 hPa 0,0 l/m
21.02.2007 08:00 -3,2 C 98 % 1016 hPa 0,0 l/m
21.02.2007 09:00 -1,2 C 98 % 1016 hPa 0,0 l/m
21.02.2007 10:00 2,4 C 98 % 1016 hPa 0,0 l/m
21.02.2007 11:00 6,4 C 73 % 1016 hPa 0,0 l/m
21.02.2007 12:00 9,6 C 56 % 1016 hPa 0,0 l/m
21.02.2007 13:00 12,2 C 48 % 1015 hPa 0,0 l/m
21.02.2007 14:00 13,8 C 38 % 1015 hPa 0,0 l/m
21.02.2007 15:00 13,6 C 33 % 1014 hPa 0,0 l/m
21.02.2007 16:00 12,5 C 36 % 1014 hPa 0,0 l/m
21.02.2007 17:00 10,8 C 40 % 1014 hPa 0,0 l/m
21.02.2007 18:00 8,6 C 45 % 1014 hPa 0,0 l/m
21.02.2007 19:00 6,8 C 53 % 1014 hPa 0,0 l/m
21.02.2007 20:00 6,2 C 60 % 1014 hPa 0,0 l/m
21.02.2007 21:00 5,9 C 63 % 1015 hPa 0,0 l/m
21.02.2007 22:00 6,4 C 60 % 1015 hPa 0,0 l/m
21.02.2007 23:00 6,4 C 61 % 1015 hPa 0,0 l/m
22.02.2007 00:00 5,1 C 67 % 1015 hPa 0,0 l/m
22.02.2007 01:00 4,1 C 73 % 1015 hPa 0,0 l/m
22.02.2007 02:00 3,4 C 76 % 1015 hPa 0,0 l/m
22.02.2007 03:00 3,0 C 78 % 1015 hPa 0,0 l/m
22.02.2007 04:00 3,2 C 80 % 1015 hPa 0,0 l/m
22.02.2007 05:00 3,2 C 81 % 1015 hPa 0,0 l/m
22.02.2007 06:00 2,8 C 83 % 1015 hPa 0,0 l/m
22.02.2007 07:00 2,0 C 85 % 1015 hPa 0,0 l/m
22.02.2007 08:00 2,2 C 88 % 1015 hPa 0,0 l/m
22.02.2007 09:00 3,8 C 85 % 1015 hPa 0,0 l/m
22.02.2007 10:00 7,1 C 72 % 1015 hPa 0,0 l/m
22.02.2007 11:00 9,6 C 62 % 1015 hPa 0,0 l/m
22.02.2007 12:00 11,5 C 50 % 1014 hPa 0,0 l/m
22.02.2007 13:00 13,6 C 41 % 1014 hPa 0,0 l/m
22.02.2007 14:00 14,1 C 40 % 1013 hPa 0,0 l/m
22.02.2007 15:00 14,0 C 38 % 1013 hPa 0,0 l/m
22.02.2007 16:00 13,2 C 38 % 1013 hPa 0,0 l/m
22.02.2007 17:00 11,5 C 41 % 1013 hPa 0,0 l/m
22.02.2007 18:00 8,7 C 50 % 1013 hPa 0,0 l/m
22.02.2007 19:00 6,4 C 57 % 1014 hPa 0,0 l/m
22.02.2007 20:00 4,8 C 66 % 1014 hPa 0,0 l/m
22.02.2007 21:00 4,3 C 71 % 1014 hPa 0,0 l/m
22.02.2007 22:00 3,8 C 75 % 1014 hPa 0,0 l/m
22.02.2007 23:00 3,8 C 78 % 1014 hPa 0,0 l/m
23.02.2007 00:00 3,8 C 80 % 1014 hPa 0,0 l/m
23.02.2007 01:00 3,3 C 81 % 1014 hPa 0,0 l/m
23.02.2007 02:00 3,1 C 84 % 1014 hPa 0,0 l/m
23.02.2007 03:00 2,7 C 86 % 1014 hPa 0,0 l/m
23.02.2007 04:00 2,1 C 88 % 1014 hPa 0,0 l/m
23.02.2007 05:00 2,4 C 89 % 1014 hPa 0,0 l/m
23.02.2007 06:00 1,6 C 89 % 1013 hPa 0,0 l/m
23.02.2007 07:00 0,8 C 90 % 1014 hPa 0,0 l/m
23.02.2007 08:00 1,2 C 93 % 1014 hPa 0,0 l/m
23.02.2007 09:00 4,1 C 90 % 1014 hPa 0,0 l/m
23.02.2007 10:00 8,2 C 68 % 1013 hPa 0,0 l/m
23.02.2007 11:00 11,0 C 51 % 1013 hPa 0,0 l/m
23.02.2007 12:00 12,2 C 48 % 1013 hPa 0,0 l/m
23.02.2007 13:00 13,4 C 43 % 1012 hPa 0,0 l/m
23.02.2007 14:00 14,0 C 41 % 1012 hPa 0,0 l/m
23.02.2007 15:00 13,6 C 43 % 1012 hPa 0,0 l/m
23.02.2007 16:00 13,0 C 44 % 1011 hPa 0,0 l/m
23.02.2007 17:00 11,8 C 48 % 1011 hPa 0,0 l/m
23.02.2007 18:00 9,9 C 53 % 1012 hPa 0,0 l/m
23.02.2007 19:00 7,5 C 62 % 1012 hPa 0,0 l/m
23.02.2007 20:00 5,7 C 70 % 1012 hPa 0,0 l/m
23.02.2007 21:00 4,5 C 76 % 1012 hPa 0,0 l/m
23.02.2007 22:00 3,6 C 79 % 1012 hPa 0,0 l/m
23.02.2007 23:00 2,9 C 83 % 1012 hPa 0,0 l/m
24.02.2007 00:00 2,4 C 86 % 1011 hPa 0,0 l/m
24.02.2007 01:00 1,7 C 88 % 1011 hPa 0,0 l/m
24.02.2007 02:00 1,2 C 90 % 1011 hPa 0,0 l/m
24.02.2007 03:00 0,6 C 92 % 1010 hPa 0,0 l/m
24.02.2007 04:00 -0,0 C 93 % 1010 hPa 0,0 l/m
24.02.2007 05:00 -0,5 C 94 % 1010 hPa 0,0 l/m
24.02.2007 06:00 -0,7 C 96 % 1009 hPa 0,0 l/m
24.02.2007 07:00 -0,8 C 97 % 1009 hPa 0,0 l/m
24.02.2007 08:00 0,3 C 98 % 1009 hPa 0,0 l/m
24.02.2007 09:00 3,1 C 98 % 1008 hPa 0,0 l/m
24.02.2007 10:00 7,8 C 80 % 1007 hPa 0,0 l/m
24.02.2007 11:00 10,1 C 49 % 1008 hPa 0,0 l/m
24.02.2007 12:00 9,2 C 53 % 1009 hPa 0,0 l/m
24.02.2007 13:00 7,4 C 74 % 1009 hPa 0,0 l/m
24.02.2007 14:00 8,5 C 67 % 1009 hPa 0,0 l/m
24.02.2007 15:00 9,1 C 64 % 1009 hPa 0,0 l/m
24.02.2007 16:00 8,2 C 67 % 1009 hPa 0,0 l/m
24.02.2007 17:00 6,9 C 68 % 1010 hPa 0,0 l/m
24.02.2007 18:00 5,4 C 79 % 1010 hPa 0,0 l/m
24.02.2007 19:00 4,4 C 85 % 1010 hPa 0,0 l/m
24.02.2007 20:00 4,3 C 83 % 1010 hPa 0,0 l/m
24.02.2007 21:00 4,5 C 80 % 1010 hPa 0,0 l/m
24.02.2007 22:00 5,7 C 74 % 1010 hPa 0,0 l/m
24.02.2007 23:00 5,6 C 72 % 1010 hPa 0,0 l/m
25.02.2007 00:00 4,7 C 76 % 1010 hPa 0,0 l/m
25.02.2007 01:00 4,5 C 79 % 1009 hPa 0,0 l/m
25.02.2007 02:00 5,3 C 78 % 1009 hPa 0,0 l/m
25.02.2007 03:00 4,8 C 78 % 1008 hPa 0,0 l/m
25.02.2007 04:00 5,9 C 74 % 1007 hPa 0,0 l/m
25.02.2007 05:00 5,8 C 72 % 1006 hPa 0,0 l/m
25.02.2007 06:00 6,3 C 71 % 1006 hPa 0,0 l/m
25.02.2007 07:00 6,0 C 73 % 1006 hPa 0,0 l/m
25.02.2007 08:00 5,4 C 79 % 1005 hPa 0,0 l/m
25.02.2007 09:00 6,3 C 75 % 1005 hPa 0,0 l/m
25.02.2007 10:00 6,1 C 85 % 1006 hPa 1,0 l/m
25.02.2007 11:00 6,1 C 90 % 1006 hPa 0,0 l/m
25.02.2007 12:00 6,3 C 91 % 1006 hPa 0,0 l/m
25.02.2007 13:00 5,4 C 81 % 1006 hPa 0,0 l/m
25.02.2007 14:00 4,8 C 76 % 1006 hPa 0,0 l/m
25.02.2007 15:00 4,7 C 80 % 1006 hPa 0,0 l/m
25.02.2007 16:00 4,6 C 83 % 1006 hPa 0,0 l/m
25.02.2007 17:00 4,4 C 77 % 1006 hPa 0,0 l/m
25.02.2007 18:00 3,7 C 78 % 1006 hPa 0,0 l/m
25.02.2007 19:00 3,4 C 76 % 1006 hPa 0,0 l/m
25.02.2007 20:00 3,7 C 72 % 1006 hPa 0,0 l/m
25.02.2007 21:00 3,9 C 79 % 1006 hPa 0,0 l/m
25.02.2007 22:00 4,1 C 78 % 1006 hPa 0,0 l/m
25.02.2007 23:00 3,8 C 76 % 1006 hPa 0,0 l/m
Min-Datum _ 21.02.07 21.02.07 25.02.07 -
_ Min-Zeit 07:42 14:44 08:06 -
Minimum _ -3,8 C 30 % 1004 hPa -
Max-Datum _ 22.02.07 19.02.07 19.02.07 25.02.07
_ Max-Zeit 14:33 02:34 00:06 10:27
Maximum _ 14,4 C 98 % 1016 hPa 1,0 l/m
Durchschnitt _ 5,0 C 75 % 1013 hPa #1,0 l/m

Durchschnitt Minimum Temp.4,4 C
Durchschnitt Maximum Temp.5,6 C